sensor_id;sensor_type;location;lat;lon;timestamp;P1;durP1;ratioP1;P2;durP2;ratioP2
34876;SDS011;21086;44.780;17.194;2023-07-31T00:01:21;1.23;;;1.10;;
34876;SDS011;21086;44.780;17.194;2023-07-31T00:03:48;1.35;;;1.00;;
34876;SDS011;21086;44.780;17.194;2023-07-31T00:06:16;1.48;;;1.23;;
34876;SDS011;21086;44.780;17.194;2023-07-31T00:08:43;1.70;;;1.02;;
34876;SDS011;21086;44.780;17.194;2023-07-31T00:11:10;2.13;;;1.23;;
34876;SDS011;21086;44.780;17.194;2023-07-31T00:13:37;1.27;;;1.17;;
34876;SDS011;21086;44.780;17.194;2023-07-31T00:16:05;1.42;;;1.20;;
34876;SDS011;21086;44.780;17.194;2023-07-31T00:18:32;2.80;;;1.10;;
34876;SDS011;21086;44.780;17.194;2023-07-31T00:20:59;1.50;;;1.10;;
34876;SDS011;21086;44.780;17.194;2023-07-31T00:23:26;1.05;;;0.77;;
34876;SDS011;21086;44.780;17.194;2023-07-31T00:25:53;1.20;;;1.10;;
34876;SDS011;21086;44.780;17.194;2023-07-31T00:28:20;1.50;;;0.88;;
34876;SDS011;21086;44.780;17.194;2023-07-31T00:30:47;1.20;;;1.10;;
34876;SDS011;21086;44.780;17.194;2023-07-31T00:33:14;1.15;;;0.90;;
34876;SDS011;21086;44.780;17.194;2023-07-31T00:35:41;1.45;;;0.85;;
34876;SDS011;21086;44.780;17.194;2023-07-31T00:38:08;1.20;;;1.10;;
34876;SDS011;21086;44.780;17.194;2023-07-31T00:40:36;1.42;;;1.00;;
34876;SDS011;21086;44.780;17.194;2023-07-31T00:43:04;2.78;;;0.90;;
34876;SDS011;21086;44.780;17.194;2023-07-31T00:45:31;1.27;;;0.90;;
34876;SDS011;21086;44.780;17.194;2023-07-31T00:47:59;1.58;;;0.90;;
34876;SDS011;21086;44.780;17.194;2023-07-31T00:50:28;1.52;;;1.05;;
34876;SDS011;21086;44.780;17.194;2023-07-31T00:52:55;1.70;;;1.30;;
34876;SDS011;21086;44.780;17.194;2023-07-31T00:55:22;1.25;;;0.85;;
34876;SDS011;21086;44.780;17.194;2023-07-31T00:57:49;1.33;;;0.90;;
34876;SDS011;21086;44.780;17.194;2023-07-31T01:00:19;1.77;;;1.08;;
34876;SDS011;21086;44.780;17.194;2023-07-31T01:02:46;1.67;;;1.17;;
34876;SDS011;21086;44.780;17.194;2023-07-31T01:05:23;1.27;;;0.90;;
34876;SDS011;21086;44.780;17.194;2023-07-31T01:10:54;2.42;;;1.20;;
34876;SDS011;21086;44.780;17.194;2023-07-31T01:13:28;2.13;;;1.23;;
34876;SDS011;21086;44.780;17.194;2023-07-31T01:15:56;2.78;;;2.00;;
34876;SDS011;21086;44.780;17.194;2023-07-31T01:18:23;2.38;;;2.08;;
34876;SDS011;21086;44.780;17.194;2023-07-31T01:20:54;2.03;;;1.60;;
34876;SDS011;21086;44.780;17.194;2023-07-31T01:23:35;3.17;;;1.30;;
34876;SDS011;21086;44.780;17.194;2023-07-31T01:26:23;1.98;;;1.13;;
34876;SDS011;21086;44.780;17.194;2023-07-31T01:29:10;1.35;;;1.17;;
34876;SDS011;21086;44.780;17.194;2023-07-31T01:31:38;1.65;;;1.10;;
34876;SDS011;21086;44.780;17.194;2023-07-31T01:34:07;1.73;;;0.98;;
34876;SDS011;21086;44.780;17.194;2023-07-31T01:36:36;3.22;;;1.70;;
34876;SDS011;21086;44.780;17.194;2023-07-31T01:39:04;3.03;;;1.50;;
34876;SDS011;21086;44.780;17.194;2023-07-31T01:41:31;2.55;;;1.50;;
34876;SDS011;21086;44.780;17.194;2023-07-31T01:43:58;1.95;;;1.75;;
34876;SDS011;21086;44.780;17.194;2023-07-31T01:46:25;3.10;;;1.38;;
34876;SDS011;21086;44.780;17.194;2023-07-31T01:48:52;1.90;;;1.65;;
34876;SDS011;21086;44.780;17.194;2023-07-31T01:51:20;1.70;;;1.30;;
34876;SDS011;21086;44.780;17.194;2023-07-31T01:53:46;2.58;;;1.08;;
34876;SDS011;21086;44.780;17.194;2023-07-31T01:56:13;1.48;;;1.23;;
34876;SDS011;21086;44.780;17.194;2023-07-31T01:58:41;1.85;;;1.20;;
34876;SDS011;21086;44.780;17.194;2023-07-31T02:01:08;1.83;;;1.00;;
34876;SDS011;21086;44.780;17.194;2023-07-31T02:03:35;1.15;;;1.00;;
34876;SDS011;21086;44.780;17.194;2023-07-31T02:06:02;3.42;;;1.48;;
34876;SDS011;21086;44.780;17.194;2023-07-31T02:08:29;1.33;;;1.20;;
34876;SDS011;21086;44.780;17.194;2023-07-31T02:10:56;1.00;;;0.88;;
34876;SDS011;21086;44.780;17.194;2023-07-31T02:13:23;1.40;;;1.00;;
34876;SDS011;21086;44.780;17.194;2023-07-31T02:15:51;4.40;;;0.85;;
34876;SDS011;21086;44.780;17.194;2023-07-31T02:18:18;1.25;;;0.90;;
34876;SDS011;21086;44.780;17.194;2023-07-31T02:20:49;2.38;;;1.00;;
34876;SDS011;21086;44.780;17.194;2023-07-31T02:23:18;1.30;;;1.00;;
34876;SDS011;21086;44.780;17.194;2023-07-31T02:25:46;1.00;;;0.90;;
34876;SDS011;21086;44.780;17.194;2023-07-31T02:28:13;1.58;;;0.95;;
34876;SDS011;21086;44.780;17.194;2023-07-31T02:30:43;0.93;;;0.85;;
34876;SDS011;21086;44.780;17.194;2023-07-31T02:33:12;5.10;;;1.20;;
34876;SDS011;21086;44.780;17.194;2023-07-31T02:35:40;1.80;;;1.02;;
34876;SDS011;21086;44.780;17.194;2023-07-31T02:38:08;2.13;;;0.80;;
34876;SDS011;21086;44.780;17.194;2023-07-31T02:40:34;1.48;;;0.95;;
34876;SDS011;21086;44.780;17.194;2023-07-31T02:43:01;0.80;;;0.70;;
34876;SDS011;21086;44.780;17.194;2023-07-31T02:45:29;2.17;;;0.90;;
34876;SDS011;21086;44.780;17.194;2023-07-31T02:47:56;1.90;;;1.00;;
34876;SDS011;21086;44.780;17.194;2023-07-31T02:50:23;0.65;;;0.65;;
34876;SDS011;21086;44.780;17.194;2023-07-31T02:52:50;1.33;;;0.98;;
34876;SDS011;21086;44.780;17.194;2023-07-31T02:55:17;1.70;;;1.00;;
34876;SDS011;21086;44.780;17.194;2023-07-31T02:57:44;1.35;;;1.25;;
34876;SDS011;21086;44.780;17.194;2023-07-31T03:00:11;2.85;;;1.45;;
34876;SDS011;21086;44.780;17.194;2023-07-31T03:02:38;4.30;;;1.20;;
34876;SDS011;21086;44.780;17.194;2023-07-31T03:05:05;2.15;;;1.10;;
34876;SDS011;21086;44.780;17.194;2023-07-31T03:07:32;1.60;;;1.45;;
34876;SDS011;21086;44.780;17.194;2023-07-31T03:10:00;3.97;;;1.50;;
34876;SDS011;21086;44.780;17.194;2023-07-31T03:12:27;2.80;;;1.67;;
34876;SDS011;21086;44.780;17.194;2023-07-31T03:14:54;1.92;;;1.30;;
34876;SDS011;21086;44.780;17.194;2023-07-31T03:17:21;2.38;;;1.27;;
34876;SDS011;21086;44.780;17.194;2023-07-31T03:19:48;3.67;;;1.63;;
34876;SDS011;21086;44.780;17.194;2023-07-31T03:22:15;3.65;;;1.60;;
34876;SDS011;21086;44.780;17.194;2023-07-31T03:24:42;5.68;;;1.70;;
34876;SDS011;21086;44.780;17.194;2023-07-31T03:27:09;1.60;;;1.27;;
34876;SDS011;21086;44.780;17.194;2023-07-31T03:29:36;1.20;;;1.10;;
34876;SDS011;21086;44.780;17.194;2023-07-31T03:32:04;2.40;;;1.30;;
34876;SDS011;21086;44.780;17.194;2023-07-31T03:34:31;2.88;;;0.93;;
34876;SDS011;21086;44.780;17.194;2023-07-31T03:36:58;1.70;;;1.15;;
34876;SDS011;21086;44.780;17.194;2023-07-31T03:39:25;2.08;;;1.40;;
34876;SDS011;21086;44.780;17.194;2023-07-31T03:41:52;2.47;;;1.30;;
34876;SDS011;21086;44.780;17.194;2023-07-31T03:44:20;3.88;;;1.50;;
34876;SDS011;21086;44.780;17.194;2023-07-31T03:46:47;2.72;;;1.50;;
34876;SDS011;21086;44.780;17.194;2023-07-31T03:49:14;5.00;;;2.20;;
34876;SDS011;21086;44.780;17.194;2023-07-31T03:51:41;3.78;;;3.38;;
34876;SDS011;21086;44.780;17.194;2023-07-31T03:54:08;3.45;;;2.20;;
34876;SDS011;21086;44.780;17.194;2023-07-31T03:56:35;2.70;;;2.00;;
34876;SDS011;21086;44.780;17.194;2023-07-31T03:59:02;2.65;;;1.58;;
34876;SDS011;21086;44.780;17.194;2023-07-31T04:01:29;2.38;;;1.40;;
34876;SDS011;21086;44.780;17.194;2023-07-31T04:03:56;4.15;;;1.27;;
34876;SDS011;21086;44.780;17.194;2023-07-31T04:06:23;4.53;;;1.60;;
34876;SDS011;21086;44.780;17.194;2023-07-31T04:08:51;1.90;;;1.33;;
34876;SDS011;21086;44.780;17.194;2023-07-31T04:11:18;3.58;;;1.55;;
34876;SDS011;21086;44.780;17.194;2023-07-31T04:13:45;1.95;;;1.27;;
34876;SDS011;21086;44.780;17.194;2023-07-31T04:16:12;4.00;;;1.10;;
34876;SDS011;21086;44.780;17.194;2023-07-31T04:18:39;1.08;;;0.80;;
34876;SDS011;21086;44.780;17.194;2023-07-31T04:21:06;1.63;;;0.95;;
34876;SDS011;21086;44.780;17.194;2023-07-31T04:23:33;1.35;;;0.90;;
34876;SDS011;21086;44.780;17.194;2023-07-31T04:26:00;2.58;;;1.20;;
34876;SDS011;21086;44.780;17.194;2023-07-31T04:28:27;3.47;;;1.17;;
34876;SDS011;21086;44.780;17.194;2023-07-31T04:30:54;1.98;;;1.10;;
34876;SDS011;21086;44.780;17.194;2023-07-31T04:33:21;1.27;;;0.95;;
34876;SDS011;21086;44.780;17.194;2023-07-31T04:35:52;1.63;;;1.10;;
34876;SDS011;21086;44.780;17.194;2023-07-31T04:38:20;2.55;;;1.10;;
34876;SDS011;21086;44.780;17.194;2023-07-31T04:40:48;2.33;;;1.10;;
34876;SDS011;21086;44.780;17.194;2023-07-31T04:43:15;1.23;;;0.85;;
34876;SDS011;21086;44.780;17.194;2023-07-31T04:45:46;1.63;;;0.75;;
34876;SDS011;21086;44.780;17.194;2023-07-31T04:48:16;1.30;;;0.80;;
34876;SDS011;21086;44.780;17.194;2023-07-31T04:50:44;0.65;;;0.65;;
34876;SDS011;21086;44.780;17.194;2023-07-31T04:53:11;1.67;;;1.00;;
34876;SDS011;21086;44.780;17.194;2023-07-31T04:55:39;1.10;;;0.82;;
34876;SDS011;21086;44.780;17.194;2023-07-31T04:58:06;0.95;;;0.73;;
34876;SDS011;21086;44.780;17.194;2023-07-31T05:00:33;1.40;;;1.10;;
34876;SDS011;21086;44.780;17.194;2023-07-31T05:03:01;1.40;;;0.95;;
34876;SDS011;21086;44.780;17.194;2023-07-31T05:05:28;2.33;;;1.00;;
34876;SDS011;21086;44.780;17.194;2023-07-31T05:07:55;2.35;;;0.98;;
34876;SDS011;21086;44.780;17.194;2023-07-31T05:10:22;1.92;;;1.00;;
34876;SDS011;21086;44.780;17.194;2023-07-31T05:12:49;0.95;;;0.82;;
34876;SDS011;21086;44.780;17.194;2023-07-31T05:15:16;1.55;;;0.90;;
34876;SDS011;21086;44.780;17.194;2023-07-31T05:17:43;1.80;;;1.02;;
34876;SDS011;21086;44.780;17.194;2023-07-31T05:20:10;2.22;;;1.00;;
34876;SDS011;21086;44.780;17.194;2023-07-31T05:22:38;1.65;;;1.00;;
34876;SDS011;21086;44.780;17.194;2023-07-31T05:25:05;1.85;;;0.95;;
34876;SDS011;21086;44.780;17.194;2023-07-31T05:27:32;3.80;;;0.82;;
34876;SDS011;21086;44.780;17.194;2023-07-31T05:29:59;2.30;;;0.85;;
34876;SDS011;21086;44.780;17.194;2023-07-31T05:32:26;2.28;;;1.25;;
34876;SDS011;21086;44.780;17.194;2023-07-31T05:34:53;2.92;;;0.80;;
34876;SDS011;21086;44.780;17.194;2023-07-31T05:37:21;1.05;;;0.90;;
34876;SDS011;21086;44.780;17.194;2023-07-31T05:39:49;1.55;;;0.75;;
34876;SDS011;21086;44.780;17.194;2023-07-31T05:42:16;3.25;;;0.80;;
34876;SDS011;21086;44.780;17.194;2023-07-31T05:44:44;2.13;;;1.00;;
34876;SDS011;21086;44.780;17.194;2023-07-31T05:47:11;1.60;;;0.93;;
34876;SDS011;21086;44.780;17.194;2023-07-31T05:49:38;1.20;;;0.90;;
34876;SDS011;21086;44.780;17.194;2023-07-31T05:52:05;2.45;;;1.30;;
34876;SDS011;21086;44.780;17.194;2023-07-31T05:54:33;2.50;;;0.95;;
34876;SDS011;21086;44.780;17.194;2023-07-31T05:57:00;1.50;;;1.00;;
34876;SDS011;21086;44.780;17.194;2023-07-31T05:59:27;1.70;;;0.88;;
34876;SDS011;21086;44.780;17.194;2023-07-31T06:01:54;2.63;;;1.00;;
34876;SDS011;21086;44.780;17.194;2023-07-31T06:04:21;1.80;;;1.00;;
34876;SDS011;21086;44.780;17.194;2023-07-31T06:06:50;1.50;;;0.88;;
34876;SDS011;21086;44.780;17.194;2023-07-31T06:09:18;1.63;;;0.85;;
34876;SDS011;21086;44.780;17.194;2023-07-31T06:11:46;1.30;;;1.10;;
34876;SDS011;21086;44.780;17.194;2023-07-31T06:14:14;1.90;;;1.20;;
34876;SDS011;21086;44.780;17.194;2023-07-31T06:16:41;1.77;;;1.10;;
34876;SDS011;21086;44.780;17.194;2023-07-31T06:19:08;0.80;;;0.70;;
34876;SDS011;21086;44.780;17.194;2023-07-31T06:21:35;3.22;;;1.35;;
34876;SDS011;21086;44.780;17.194;2023-07-31T06:24:05;1.60;;;0.90;;
34876;SDS011;21086;44.780;17.194;2023-07-31T06:26:32;1.00;;;0.90;;
34876;SDS011;21086;44.780;17.194;2023-07-31T06:28:59;3.05;;;1.13;;
34876;SDS011;21086;44.780;17.194;2023-07-31T06:31:26;3.88;;;1.00;;
34876;SDS011;21086;44.780;17.194;2023-07-31T06:33:54;2.08;;;0.93;;
34876;SDS011;21086;44.780;17.194;2023-07-31T06:36:21;2.78;;;1.10;;
34876;SDS011;21086;44.780;17.194;2023-07-31T06:38:48;2.20;;;1.38;;
34876;SDS011;21086;44.780;17.194;2023-07-31T06:41:15;6.68;;;1.38;;
34876;SDS011;21086;44.780;17.194;2023-07-31T06:43:42;3.13;;;1.05;;
34876;SDS011;21086;44.780;17.194;2023-07-31T06:46:08;3.33;;;0.95;;
34876;SDS011;21086;44.780;17.194;2023-07-31T06:48:36;2.00;;;1.13;;
34876;SDS011;21086;44.780;17.194;2023-07-31T06:51:04;2.47;;;0.98;;
34876;SDS011;21086;44.780;17.194;2023-07-31T06:53:30;2.78;;;1.00;;
34876;SDS011;21086;44.780;17.194;2023-07-31T06:55:58;1.48;;;0.90;;
34876;SDS011;21086;44.780;17.194;2023-07-31T06:58:25;2.63;;;1.02;;
34876;SDS011;21086;44.780;17.194;2023-07-31T07:00:52;1.25;;;1.05;;
34876;SDS011;21086;44.780;17.194;2023-07-31T07:03:19;1.23;;;0.88;;
34876;SDS011;21086;44.780;17.194;2023-07-31T07:05:47;2.75;;;0.90;;
34876;SDS011;21086;44.780;17.194;2023-07-31T07:08:14;1.17;;;0.80;;
34876;SDS011;21086;44.780;17.194;2023-07-31T07:10:41;1.30;;;0.80;;
34876;SDS011;21086;44.780;17.194;2023-07-31T07:13:08;1.95;;;1.20;;
34876;SDS011;21086;44.780;17.194;2023-07-31T07:15:35;2.92;;;1.30;;
34876;SDS011;21086;44.780;17.194;2023-07-31T07:18:02;3.53;;;1.20;;
34876;SDS011;21086;44.780;17.194;2023-07-31T07:20:30;1.40;;;1.08;;
34876;SDS011;21086;44.780;17.194;2023-07-31T07:22:57;3.10;;;1.05;;
34876;SDS011;21086;44.780;17.194;2023-07-31T07:25:24;1.42;;;0.82;;
34876;SDS011;21086;44.780;17.194;2023-07-31T07:27:51;4.00;;;1.20;;
34876;SDS011;21086;44.780;17.194;2023-07-31T07:30:18;1.77;;;0.90;;
34876;SDS011;21086;44.780;17.194;2023-07-31T07:32:46;2.15;;;0.68;;
34876;SDS011;21086;44.780;17.194;2023-07-31T07:35:13;1.13;;;1.02;;
34876;SDS011;21086;44.780;17.194;2023-07-31T07:37:40;1.80;;;0.90;;
34876;SDS011;21086;44.780;17.194;2023-07-31T07:40:08;2.88;;;0.88;;
34876;SDS011;21086;44.780;17.194;2023-07-31T07:42:35;1.20;;;0.80;;
34876;SDS011;21086;44.780;17.194;2023-07-31T07:45:02;1.75;;;0.90;;
34876;SDS011;21086;44.780;17.194;2023-07-31T07:47:29;1.10;;;0.90;;
34876;SDS011;21086;44.780;17.194;2023-07-31T07:49:57;0.93;;;0.65;;
34876;SDS011;21086;44.780;17.194;2023-07-31T07:52:24;4.72;;;0.80;;
34876;SDS011;21086;44.780;17.194;2023-07-31T07:54:51;1.00;;;0.68;;
34876;SDS011;21086;44.780;17.194;2023-07-31T07:57:18;1.27;;;0.90;;
34876;SDS011;21086;44.780;17.194;2023-07-31T07:59:45;2.50;;;0.93;;
34876;SDS011;21086;44.780;17.194;2023-07-31T08:02:12;3.22;;;0.88;;
34876;SDS011;21086;44.780;17.194;2023-07-31T08:04:39;0.85;;;0.73;;
34876;SDS011;21086;44.780;17.194;2023-07-31T08:07:06;1.75;;;0.88;;
34876;SDS011;21086;44.780;17.194;2023-07-31T08:09:33;0.88;;;0.73;;
34876;SDS011;21086;44.780;17.194;2023-07-31T08:12:01;2.45;;;0.70;;
34876;SDS011;21086;44.780;17.194;2023-07-31T08:14:29;0.98;;;0.68;;
34876;SDS011;21086;44.780;17.194;2023-07-31T08:16:58;1.58;;;0.70;;
34876;SDS011;21086;44.780;17.194;2023-07-31T08:19:26;2.17;;;0.95;;
34876;SDS011;21086;44.780;17.194;2023-07-31T08:21:54;1.75;;;0.60;;
34876;SDS011;21086;44.780;17.194;2023-07-31T08:24:24;2.15;;;0.80;;
34876;SDS011;21086;44.780;17.194;2023-07-31T08:26:51;1.35;;;0.70;;
34876;SDS011;21086;44.780;17.194;2023-07-31T08:29:18;2.92;;;0.68;;
34876;SDS011;21086;44.780;17.194;2023-07-31T08:31:45;1.42;;;0.90;;
34876;SDS011;21086;44.780;17.194;2023-07-31T08:34:12;2.45;;;0.90;;
34876;SDS011;21086;44.780;17.194;2023-07-31T08:36:39;0.93;;;0.80;;
34876;SDS011;21086;44.780;17.194;2023-07-31T08:39:07;1.58;;;0.90;;
34876;SDS011;21086;44.780;17.194;2023-07-31T08:41:37;4.18;;;0.80;;
34876;SDS011;21086;44.780;17.194;2023-07-31T08:44:07;2.75;;;0.85;;
34876;SDS011;21086;44.780;17.194;2023-07-31T08:46:35;1.58;;;0.90;;
34876;SDS011;21086;44.780;17.194;2023-07-31T08:49:04;1.38;;;0.70;;
34876;SDS011;21086;44.780;17.194;2023-07-31T08:51:35;0.70;;;0.63;;
34876;SDS011;21086;44.780;17.194;2023-07-31T08:54:03;1.05;;;0.85;;
34876;SDS011;21086;44.780;17.194;2023-07-31T08:56:33;2.40;;;0.70;;
34876;SDS011;21086;44.780;17.194;2023-07-31T08:59:01;1.10;;;0.75;;
34876;SDS011;21086;44.780;17.194;2023-07-31T09:01:31;1.33;;;0.80;;
34876;SDS011;21086;44.780;17.194;2023-07-31T09:04:02;1.23;;;0.80;;
34876;SDS011;21086;44.780;17.194;2023-07-31T09:06:31;0.70;;;0.60;;
34876;SDS011;21086;44.780;17.194;2023-07-31T09:08:59;0.73;;;0.60;;
34876;SDS011;21086;44.780;17.194;2023-07-31T09:11:27;2.22;;;0.70;;
34876;SDS011;21086;44.780;17.194;2023-07-31T09:13:56;0.63;;;0.60;;
34876;SDS011;21086;44.780;17.194;2023-07-31T09:16:28;1.00;;;0.60;;
34876;SDS011;21086;44.780;17.194;2023-07-31T09:18:58;1.27;;;0.63;;
34876;SDS011;21086;44.780;17.194;2023-07-31T09:21:28;0.65;;;0.57;;
34876;SDS011;21086;44.780;17.194;2023-07-31T09:23:55;0.82;;;0.60;;
34876;SDS011;21086;44.780;17.194;2023-07-31T09:26:34;1.00;;;0.65;;
34876;SDS011;21086;44.780;17.194;2023-07-31T09:29:05;0.90;;;0.70;;
34876;SDS011;21086;44.780;17.194;2023-07-31T09:31:44;1.73;;;0.77;;
34876;SDS011;21086;44.780;17.194;2023-07-31T09:34:11;1.00;;;0.63;;
34876;SDS011;21086;44.780;17.194;2023-07-31T09:36:44;1.02;;;0.60;;
34876;SDS011;21086;44.780;17.194;2023-07-31T09:39:12;1.33;;;0.70;;
34876;SDS011;21086;44.780;17.194;2023-07-31T09:41:41;1.20;;;0.88;;
34876;SDS011;21086;44.780;17.194;2023-07-31T09:44:10;0.88;;;0.70;;
34876;SDS011;21086;44.780;17.194;2023-07-31T09:46:38;1.73;;;0.77;;
34876;SDS011;21086;44.780;17.194;2023-07-31T09:49:09;1.13;;;0.90;;
34876;SDS011;21086;44.780;17.194;2023-07-31T09:51:38;1.27;;;0.82;;
34876;SDS011;21086;44.780;17.194;2023-07-31T09:54:15;1.35;;;0.70;;
34876;SDS011;21086;44.780;17.194;2023-07-31T09:56:44;2.60;;;1.00;;
34876;SDS011;21086;44.780;17.194;2023-07-31T09:59:13;0.60;;;0.60;;
34876;SDS011;21086;44.780;17.194;2023-07-31T10:01:41;1.88;;;0.80;;
34876;SDS011;21086;44.780;17.194;2023-07-31T10:04:10;0.85;;;0.63;;
34876;SDS011;21086;44.780;17.194;2023-07-31T10:06:39;1.63;;;0.85;;
34876;SDS011;21086;44.780;17.194;2023-07-31T10:09:09;1.77;;;0.63;;
34876;SDS011;21086;44.780;17.194;2023-07-31T10:11:41;0.77;;;0.77;;
34876;SDS011;21086;44.780;17.194;2023-07-31T10:14:10;0.70;;;0.70;;
34876;SDS011;21086;44.780;17.194;2023-07-31T10:16:39;1.35;;;0.55;;
34876;SDS011;21086;44.780;17.194;2023-07-31T10:19:08;1.70;;;0.82;;
34876;SDS011;21086;44.780;17.194;2023-07-31T10:21:37;0.90;;;0.55;;
34876;SDS011;21086;44.780;17.194;2023-07-31T10:24:04;1.05;;;0.68;;
34876;SDS011;21086;44.780;17.194;2023-07-31T10:26:31;2.60;;;0.80;;
34876;SDS011;21086;44.780;17.194;2023-07-31T10:29:01;1.42;;;0.60;;
34876;SDS011;21086;44.780;17.194;2023-07-31T10:31:29;1.10;;;0.65;;
34876;SDS011;21086;44.780;17.194;2023-07-31T10:33:57;6.30;;;0.73;;
34876;SDS011;21086;44.780;17.194;2023-07-31T10:36:29;1.90;;;0.85;;
34876;SDS011;21086;44.780;17.194;2023-07-31T10:38:56;3.38;;;0.80;;
34876;SDS011;21086;44.780;17.194;2023-07-31T10:41:30;1.00;;;0.80;;
34876;SDS011;21086;44.780;17.194;2023-07-31T10:43:58;1.55;;;0.60;;
34876;SDS011;21086;44.780;17.194;2023-07-31T10:46:28;1.00;;;0.65;;
34876;SDS011;21086;44.780;17.194;2023-07-31T10:49:01;2.40;;;0.90;;
34876;SDS011;21086;44.780;17.194;2023-07-31T10:51:32;1.40;;;0.70;;
34876;SDS011;21086;44.780;17.194;2023-07-31T10:54:14;1.52;;;0.73;;
34876;SDS011;21086;44.780;17.194;2023-07-31T10:56:45;0.93;;;0.73;;
34876;SDS011;21086;44.780;17.194;2023-07-31T10:59:16;0.80;;;0.55;;
34876;SDS011;21086;44.780;17.194;2023-07-31T11:01:54;1.67;;;0.60;;
34876;SDS011;21086;44.780;17.194;2023-07-31T11:04:29;0.60;;;0.57;;
34876;SDS011;21086;44.780;17.194;2023-07-31T11:06:59;0.65;;;0.60;;
34876;SDS011;21086;44.780;17.194;2023-07-31T11:09:32;1.25;;;0.60;;
34876;SDS011;21086;44.780;17.194;2023-07-31T11:11:59;3.17;;;0.90;;
34876;SDS011;21086;44.780;17.194;2023-07-31T11:14:26;0.70;;;0.60;;
34876;SDS011;21086;44.780;17.194;2023-07-31T11:16:53;0.88;;;0.65;;
34876;SDS011;21086;44.780;17.194;2023-07-31T11:19:21;1.23;;;0.60;;
34876;SDS011;21086;44.780;17.194;2023-07-31T11:21:52;1.23;;;0.70;;
34876;SDS011;21086;44.780;17.194;2023-07-31T11:24:19;3.40;;;0.70;;
34876;SDS011;21086;44.780;17.194;2023-07-31T11:26:53;1.02;;;0.80;;
34876;SDS011;21086;44.780;17.194;2023-07-31T11:29:20;1.27;;;0.80;;
34876;SDS011;21086;44.780;17.194;2023-07-31T11:31:53;1.00;;;0.60;;
34876;SDS011;21086;44.780;17.194;2023-07-31T11:34:20;1.20;;;0.73;;
34876;SDS011;21086;44.780;17.194;2023-07-31T11:36:54;1.00;;;0.60;;
34876;SDS011;21086;44.780;17.194;2023-07-31T11:39:21;0.98;;;0.50;;
34876;SDS011;21086;44.780;17.194;2023-07-31T11:41:49;0.85;;;0.70;;
34876;SDS011;21086;44.780;17.194;2023-07-31T11:44:16;2.08;;;0.50;;
34876;SDS011;21086;44.780;17.194;2023-07-31T11:46:56;0.77;;;0.60;;
34876;SDS011;21086;44.780;17.194;2023-07-31T11:49:24;0.77;;;0.70;;
34876;SDS011;21086;44.780;17.194;2023-07-31T11:51:52;1.35;;;0.70;;
34876;SDS011;21086;44.780;17.194;2023-07-31T11:54:20;1.42;;;0.80;;
34876;SDS011;21086;44.780;17.194;2023-07-31T11:56:47;1.13;;;0.60;;
34876;SDS011;21086;44.780;17.194;2023-07-31T11:59:15;2.65;;;0.50;;
34876;SDS011;21086;44.780;17.194;2023-07-31T12:01:43;0.93;;;0.70;;
34876;SDS011;21086;44.780;17.194;2023-07-31T12:04:10;1.95;;;0.70;;
34876;SDS011;21086;44.780;17.194;2023-07-31T12:06:37;1.23;;;0.70;;
34876;SDS011;21086;44.780;17.194;2023-07-31T12:09:07;1.67;;;0.70;;
34876;SDS011;21086;44.780;17.194;2023-07-31T12:11:46;1.63;;;0.70;;
34876;SDS011;21086;44.780;17.194;2023-07-31T12:14:24;1.15;;;0.70;;
34876;SDS011;21086;44.780;17.194;2023-07-31T12:16:58;0.57;;;0.57;;
34876;SDS011;21086;44.780;17.194;2023-07-31T12:19:27;0.68;;;0.60;;
34876;SDS011;21086;44.780;17.194;2023-07-31T12:21:56;1.02;;;0.50;;
34876;SDS011;21086;44.780;17.194;2023-07-31T12:24:28;2.90;;;0.40;;
34876;SDS011;21086;44.780;17.194;2023-07-31T12:26:55;1.20;;;0.68;;
34876;SDS011;21086;44.780;17.194;2023-07-31T12:29:22;0.77;;;0.55;;
34876;SDS011;21086;44.780;17.194;2023-07-31T12:31:49;1.33;;;0.80;;
34876;SDS011;21086;44.780;17.194;2023-07-31T12:34:17;2.78;;;0.68;;
34876;SDS011;21086;44.780;17.194;2023-07-31T12:36:47;1.02;;;0.60;;
34876;SDS011;21086;44.780;17.194;2023-07-31T12:39:17;2.15;;;0.65;;
34876;SDS011;21086;44.780;17.194;2023-07-31T12:41:44;1.10;;;0.70;;
34876;SDS011;21086;44.780;17.194;2023-07-31T12:44:11;0.55;;;0.50;;
34876;SDS011;21086;44.780;17.194;2023-07-31T12:46:39;0.70;;;0.50;;
34876;SDS011;21086;44.780;17.194;2023-07-31T12:49:07;1.15;;;0.70;;
34876;SDS011;21086;44.780;17.194;2023-07-31T12:51:34;2.78;;;0.90;;
34876;SDS011;21086;44.780;17.194;2023-07-31T12:54:01;0.80;;;0.60;;
34876;SDS011;21086;44.780;17.194;2023-07-31T12:56:28;1.50;;;0.68;;
34876;SDS011;21086;44.780;17.194;2023-07-31T12:58:55;1.40;;;0.50;;
34876;SDS011;21086;44.780;17.194;2023-07-31T13:01:22;1.33;;;0.80;;
34876;SDS011;21086;44.780;17.194;2023-07-31T13:03:49;0.80;;;0.60;;
34876;SDS011;21086;44.780;17.194;2023-07-31T13:06:17;1.02;;;0.70;;
34876;SDS011;21086;44.780;17.194;2023-07-31T13:08:44;0.57;;;0.57;;
34876;SDS011;21086;44.780;17.194;2023-07-31T13:11:11;3.13;;;0.60;;
34876;SDS011;21086;44.780;17.194;2023-07-31T13:13:38;0.80;;;0.70;;
34876;SDS011;21086;44.780;17.194;2023-07-31T13:16:05;2.30;;;1.08;;
34876;SDS011;21086;44.780;17.194;2023-07-31T13:18:32;1.08;;;0.77;;
34876;SDS011;21086;44.780;17.194;2023-07-31T13:20:59;0.77;;;0.57;;
34876;SDS011;21086;44.780;17.194;2023-07-31T13:23:26;1.27;;;0.80;;
34876;SDS011;21086;44.780;17.194;2023-07-31T13:25:53;2.83;;;0.85;;
34876;SDS011;21086;44.780;17.194;2023-07-31T13:28:20;2.75;;;0.80;;
34876;SDS011;21086;44.780;17.194;2023-07-31T13:30:48;2.38;;;0.65;;
34876;SDS011;21086;44.780;17.194;2023-07-31T13:33:15;1.60;;;0.52;;
34876;SDS011;21086;44.780;17.194;2023-07-31T13:36:02;3.45;;;0.88;;
34876;SDS011;21086;44.780;17.194;2023-07-31T13:38:29;1.17;;;0.70;;
34876;SDS011;21086;44.780;17.194;2023-07-31T13:40:56;1.83;;;0.70;;
34876;SDS011;21086;44.780;17.194;2023-07-31T13:43:23;4.57;;;0.82;;
34876;SDS011;21086;44.780;17.194;2023-07-31T13:45:50;1.48;;;0.85;;
34876;SDS011;21086;44.780;17.194;2023-07-31T13:48:17;5.05;;;0.73;;
34876;SDS011;21086;44.780;17.194;2023-07-31T13:50:44;0.80;;;0.70;;
34876;SDS011;21086;44.780;17.194;2023-07-31T13:53:12;0.70;;;0.70;;
34876;SDS011;21086;44.780;17.194;2023-07-31T13:55:39;3.92;;;0.98;;
34876;SDS011;21086;44.780;17.194;2023-07-31T13:58:06;1.60;;;0.60;;
34876;SDS011;21086;44.780;17.194;2023-07-31T14:00:33;1.60;;;0.70;;
34876;SDS011;21086;44.780;17.194;2023-07-31T14:03:02;1.02;;;0.85;;
34876;SDS011;21086;44.780;17.194;2023-07-31T14:05:29;2.90;;;0.85;;
34876;SDS011;21086;44.780;17.194;2023-07-31T14:07:56;1.58;;;0.85;;
34876;SDS011;21086;44.780;17.194;2023-07-31T14:10:24;1.75;;;0.80;;
34876;SDS011;21086;44.780;17.194;2023-07-31T14:12:51;3.47;;;0.75;;
34876;SDS011;21086;44.780;17.194;2023-07-31T14:15:18;1.00;;;0.70;;
34876;SDS011;21086;44.780;17.194;2023-07-31T14:17:45;1.55;;;0.90;;
34876;SDS011;21086;44.780;17.194;2023-07-31T14:20:12;1.80;;;0.82;;
34876;SDS011;21086;44.780;17.194;2023-07-31T14:22:40;1.40;;;1.00;;
34876;SDS011;21086;44.780;17.194;2023-07-31T14:25:07;3.40;;;0.90;;
34876;SDS011;21086;44.780;17.194;2023-07-31T14:27:36;1.65;;;0.88;;
34876;SDS011;21086;44.780;17.194;2023-07-31T14:30:04;1.20;;;0.80;;
34876;SDS011;21086;44.780;17.194;2023-07-31T14:32:31;1.50;;;1.00;;
34876;SDS011;21086;44.780;17.194;2023-07-31T14:34:59;1.65;;;0.82;;
34876;SDS011;21086;44.780;17.194;2023-07-31T14:37:26;1.10;;;1.00;;
34876;SDS011;21086;44.780;17.194;2023-07-31T14:39:54;3.88;;;0.95;;
34876;SDS011;21086;44.780;17.194;2023-07-31T14:42:21;2.50;;;0.80;;